createdAt,value
2016-03-02T00:00:00.557Z,-7.52
2016-03-02T00:00:17.276Z,-7.65
2016-03-02T00:00:32.463Z,-7.54
2016-03-02T00:00:48.325Z,-7.62
2016-03-02T00:01:03.512Z,-7.51
2016-03-02T00:01:18.075Z,-7.59
2016-03-02T00:01:33.825Z,-7.52
2016-03-02T00:01:49.953Z,-7.56
2016-03-02T00:02:06.312Z,-7.63
2016-03-02T00:02:22.531Z,-7.59
2016-03-02T00:02:39.127Z,-7.51
2016-03-02T00:02:54.315Z,-7.49
2016-03-02T00:03:10.862Z,-7.48
2016-03-02T00:03:27.534Z,-7.55
2016-03-02T00:03:43.020Z,-7.49
2016-03-02T00:03:59.551Z,-7.56
2016-03-02T00:04:15.333Z,-7.47
2016-03-02T00:04:31.629Z,-7.49
2016-03-02T00:04:47.976Z,-7.55
2016-03-02T00:05:04.179Z,-7.51
2016-03-02T00:05:19.507Z,-7.48
2016-03-02T00:05:35.476Z,-7.51
2016-03-02T00:05:50.495Z,-7.52
2016-03-02T00:06:06.667Z,-7.49
2016-03-02T00:06:22.854Z,-7.48
2016-03-02T00:06:38.854Z,-7.42
2016-03-02T00:06:54.404Z,-7.49
2016-03-02T00:07:10.873Z,-7.45
2016-03-02T00:07:26.779Z,-7.48
2016-03-02T00:07:42.797Z,-7.48
2016-03-02T00:08:28.234Z,-7.49
2016-03-02T00:08:44.784Z,-7.42
2016-03-02T00:09:14.768Z,-7.44
2016-03-02T00:09:31.347Z,-7.44
2016-03-02T00:09:47.927Z,-7.45
2016-03-02T00:10:04.145Z,-7.45
2016-03-02T00:10:21.067Z,-7.37
2016-03-02T00:10:37.489Z,-7.45
2016-03-02T00:10:53.242Z,-7.4
2016-03-02T00:11:09.289Z,-7.44
2016-03-02T00:11:24.836Z,-7.37
2016-03-02T00:11:40.039Z,-7.34
2016-03-02T00:11:55.619Z,-7.38
2016-03-02T00:12:11.900Z,-7.42
2016-03-02T00:12:28.244Z,-7.4
2016-03-02T00:12:42.822Z,-7.36
2016-03-02T00:12:59.451Z,-7.38
2016-03-02T00:13:15.451Z,-7.4
2016-03-02T00:13:32.092Z,-7.34
2016-03-02T00:13:48.485Z,-7.36
2016-03-02T00:14:05.500Z,-7.4
2016-03-02T00:14:20.781Z,-7.47
2016-03-02T00:14:37.110Z,-7.4
2016-03-02T00:14:52.550Z,-7.31
2016-03-02T00:15:09.409Z,-7.42
2016-03-02T00:15:25.363Z,-7.37
2016-03-02T00:15:40.550Z,-7.47
2016-03-02T00:15:57.006Z,-7.33
2016-03-02T00:16:12.741Z,-7.36
2016-03-02T00:16:28.053Z,-7.4
2016-03-02T00:16:43.883Z,-7.38
2016-03-02T00:17:00.164Z,-7.33
2016-03-02T00:17:16.243Z,-7.34
2016-03-02T00:17:32.008Z,-7.33
2016-03-02T00:17:47.402Z,-7.37
2016-03-02T00:18:02.636Z,-7.38
2016-03-02T00:18:18.496Z,-7.3
2016-03-02T00:18:34.542Z,-7.31
2016-03-02T00:18:49.905Z,-7.31
2016-03-02T00:19:05.842Z,-7.33
2016-03-02T00:19:22.092Z,-7.3
2016-03-02T00:19:38.780Z,-7.31
2016-03-02T00:19:54.439Z,-7.34
2016-03-02T00:20:10.845Z,-7.3
2016-03-02T00:20:26.752Z,-7.33
2016-03-02T00:20:43.285Z,-7.37
2016-03-02T00:20:59.566Z,-7.36
2016-03-02T00:21:15.832Z,-7.33
2016-03-02T00:21:31.941Z,-7.4
2016-03-02T00:21:47.490Z,-7.27
2016-03-02T00:22:03.381Z,-7.37
2016-03-02T00:22:19.990Z,-7.3
2016-03-02T00:22:35.381Z,-7.31
2016-03-02T00:22:49.994Z,-7.36
2016-03-02T00:23:06.463Z,-7.33
2016-03-02T00:23:22.760Z,-7.34
2016-03-02T00:23:40.166Z,-7.31
2016-03-02T00:23:56.558Z,-7.4
2016-03-02T00:24:12.933Z,-7.31
2016-03-02T00:24:29.012Z,-7.33
2016-03-02T00:24:45.249Z,-7.4
2016-03-02T00:25:01.468Z,-7.3
2016-03-02T00:25:18.702Z,-7.38
2016-03-02T00:25:34.718Z,-7.33
2016-03-02T00:25:50.564Z,-7.31
2016-03-02T00:26:06.627Z,-7.31
2016-03-02T00:26:23.408Z,-7.28
2016-03-02T00:26:38.549Z,-7.3
2016-03-02T00:26:55.145Z,-7.37
2016-03-02T00:27:10.160Z,-7.26
2016-03-02T00:27:25.598Z,-7.26
2016-03-02T00:27:41.926Z,-7.3
2016-03-02T00:27:58.273Z,-7.34
2016-03-02T00:28:15.163Z,-7.33
2016-03-02T00:28:30.616Z,-7.33
2016-03-02T00:28:46.806Z,-7.37
2016-03-02T00:29:02.525Z,-7.33
2016-03-02T00:29:18.806Z,-7.33
2016-03-02T00:29:35.400Z,-7.27
2016-03-02T00:29:51.013Z,-7.3
2016-03-02T00:30:21.200Z,-7.31
2016-03-02T00:30:37.122Z,-7.3
2016-03-02T00:30:52.734Z,-7.3
2016-03-02T00:31:08.999Z,-7.27
2016-03-02T00:31:26.046Z,-7.19
2016-03-02T00:31:42.265Z,-7.19
2016-03-02T00:31:57.002Z,-7.2
2016-03-02T00:32:12.440Z,-7.24
2016-03-02T00:32:27.893Z,-7.19
2016-03-02T00:32:43.692Z,-7.26
2016-03-02T00:32:58.770Z,-7.22
2016-03-02T00:33:15.317Z,-7.22
2016-03-02T00:33:31.426Z,-7.27
2016-03-02T00:33:47.554Z,-7.24
2016-03-02T00:34:03.132Z,-7.27
2016-03-02T00:34:22.257Z,-7.27
2016-03-02T00:34:38.335Z,-7.19
2016-03-02T00:34:54.510Z,-7.2
2016-03-02T00:35:11.323Z,-7.19
2016-03-02T00:35:27.104Z,-7.24
2016-03-02T00:35:43.748Z,-7.24
2016-03-02T00:35:59.326Z,-7.27
2016-03-02T00:36:14.873Z,-7.16
2016-03-02T00:36:31.045Z,-7.26
2016-03-02T00:36:46.516Z,-7.22
2016-03-02T00:37:01.844Z,-7.17
2016-03-02T00:37:20.844Z,-7.17
2016-03-02T00:37:37.329Z,-7.22
2016-03-02T00:37:53.628Z,-7.22
2016-03-02T00:38:09.768Z,-7.28
2016-03-02T00:38:25.393Z,-7.26
2016-03-02T00:38:41.378Z,-7.28
2016-03-02T00:38:57.973Z,-7.19
2016-03-02T00:39:45.931Z,-7.19
2016-03-02T00:40:02.759Z,-7.19
2016-03-02T00:40:18.852Z,-7.15
2016-03-02T00:40:34.821Z,-7.19
2016-03-02T00:40:50.808Z,-7.17
2016-03-02T00:41:06.698Z,-7.2
2016-03-02T00:41:22.995Z,-7.12
2016-03-02T00:41:39.261Z,-7.1
2016-03-02T00:41:55.889Z,-7.09
2016-03-02T00:42:12.451Z,-7.13
2016-03-02T00:42:28.842Z,-7.1
2016-03-02T00:42:45.078Z,-7.12
2016-03-02T00:43:01.531Z,-7.12
2016-03-02T00:43:48.925Z,-7.12
2016-03-02T00:44:05.128Z,-7.1
2016-03-02T00:44:24.269Z,-7.09
2016-03-02T00:44:40.878Z,-7.09
2016-03-02T00:44:56.177Z,-7.12
2016-03-02T00:45:13.458Z,-7.09
2016-03-02T00:45:29.411Z,-7.06
2016-03-02T00:45:45.383Z,-7.07
2016-03-02T00:46:01.117Z,-7.1
2016-03-02T00:46:16.696Z,-7.1
2016-03-02T00:46:32.946Z,-7.1
2016-03-02T00:46:49.324Z,-7.1
2016-03-02T00:47:05.386Z,-7.12
2016-03-02T00:47:21.964Z,-7.12
2016-03-02T00:47:37.214Z,-7.07
2016-03-02T00:47:53.655Z,-7.09
2016-03-02T00:48:10.561Z,-7.06
2016-03-02T00:48:26.514Z,-7.07
2016-03-02T00:48:41.842Z,-7.17
2016-03-02T00:48:58.235Z,-7.07
2016-03-02T00:49:13.610Z,-7.07
2016-03-02T00:49:29.360Z,-7.12
2016-03-02T00:49:45.191Z,-7.17
2016-03-02T00:50:00.910Z,-7.13
2016-03-02T00:50:17.832Z,-7.15
2016-03-02T00:51:05.131Z,-7.2
2016-03-02T00:51:21.241Z,-7.17
2016-03-02T00:51:37.866Z,-7.17
2016-03-02T00:51:54.165Z,-7.19
2016-03-02T00:52:09.743Z,-7.2
2016-03-02T00:52:24.821Z,-7.13
2016-03-02T00:52:41.462Z,-7.2
2016-03-02T00:52:57.418Z,-7.22
2016-03-02T00:53:13.433Z,-7.27
2016-03-02T00:53:29.011Z,-7.19
2016-03-02T00:53:47.545Z,-7.3
2016-03-02T00:54:04.029Z,-7.19
2016-03-02T00:54:18.607Z,-7.26
2016-03-02T00:54:33.467Z,-7.22
2016-03-02T00:54:49.924Z,-7.31
2016-03-02T00:55:06.564Z,-7.31
2016-03-02T00:55:23.267Z,-7.3
2016-03-02T00:55:39.002Z,-7.34
2016-03-02T00:55:55.488Z,-7.33
2016-03-02T00:56:12.035Z,-7.34
2016-03-02T00:56:29.051Z,-7.37
2016-03-02T00:56:44.944Z,-7.33
2016-03-02T00:57:00.960Z,-7.33
2016-03-02T00:57:17.647Z,-7.34
2016-03-02T00:57:33.054Z,-7.33
2016-03-02T00:57:48.479Z,-7.3
2016-03-02T00:58:04.572Z,-7.31
2016-03-02T00:58:20.729Z,-7.27
2016-03-02T00:58:50.559Z,-7.37
2016-03-02T00:59:07.293Z,-7.3
2016-03-02T00:59:23.668Z,-7.34
2016-03-02T00:59:40.074Z,-7.28
2016-03-02T00:59:56.359Z,-7.36
2016-03-02T01:00:13.374Z,-7.28
2016-03-02T01:00:29.999Z,-7.38
2016-03-02T01:00:46.424Z,-7.3
2016-03-02T01:01:02.549Z,-7.4
2016-03-02T01:01:32.221Z,-7.31
2016-03-02T01:01:48.505Z,-7.38
2016-03-02T01:02:04.771Z,-7.34
2016-03-02T01:02:20.193Z,-7.28
2016-03-02T01:02:35.990Z,-7.33
2016-03-02T01:02:51.273Z,-7.33
2016-03-02T01:03:07.335Z,-7.31
2016-03-02T01:03:22.476Z,-7.31
2016-03-02T01:03:38.413Z,-7.3
2016-03-02T01:03:54.525Z,-7.42
2016-03-02T01:04:10.290Z,-7.38
2016-03-02T01:04:26.400Z,-7.49
2016-03-02T01:04:42.900Z,-7.45
2016-03-02T01:04:58.779Z,-7.49
2016-03-02T01:05:13.685Z,-7.51
2016-03-02T01:05:30.013Z,-7.62
2016-03-02T01:06:00.765Z,-7.58
2016-03-02T01:06:16.640Z,-7.59
2016-03-02T01:06:33.421Z,-7.55
2016-03-02T01:06:49.362Z,-7.54
2016-03-02T01:07:05.393Z,-7.56
2016-03-02T01:07:21.112Z,-7.52
2016-03-02T01:07:37.706Z,-7.63
2016-03-02T01:07:54.426Z,-7.66
2016-03-02T01:08:11.005Z,-7.56
2016-03-02T01:08:26.458Z,-7.67
2016-03-02T01:08:42.895Z,-7.62
2016-03-02T01:08:59.226Z,-7.58
2016-03-02T01:09:15.179Z,-7.62
2016-03-02T01:09:31.148Z,-7.67
2016-03-02T01:09:47.557Z,-7.63
2016-03-02T01:10:04.073Z,-7.66
2016-03-02T01:10:21.229Z,-7.67
2016-03-02T01:10:37.620Z,-7.69
2016-03-02T01:10:53.794Z,-7.65
2016-03-02T01:11:10.169Z,-7.72
2016-03-02T01:11:26.450Z,-7.63
2016-03-02T01:11:41.981Z,-7.65
2016-03-02T01:11:58.626Z,-7.67
2016-03-02T01:12:15.142Z,-7.66
2016-03-02T01:12:30.626Z,-7.69
2016-03-02T01:12:47.081Z,-7.52
2016-03-02T01:13:03.722Z,-7.65
2016-03-02T01:13:19.769Z,-7.63
2016-03-02T01:13:35.706Z,-7.66
2016-03-02T01:13:51.958Z,-7.59
2016-03-02T01:14:08.349Z,-7.65
2016-03-02T01:14:24.052Z,-7.66
2016-03-02T01:14:40.411Z,-7.59
2016-03-02T01:14:56.227Z,-7.63
2016-03-02T01:15:12.930Z,-7.62
2016-03-02T01:15:29.430Z,-7.65
2016-03-02T01:15:46.308Z,-7.67
2016-03-02T01:16:03.573Z,-7.67
2016-03-02T01:16:20.073Z,-7.65
2016-03-02T01:16:36.073Z,-7.63
2016-03-02T01:16:52.748Z,-7.66
2016-03-02T01:17:09.264Z,-7.66
2016-03-02T01:17:24.998Z,-7.65
2016-03-02T01:17:41.467Z,-7.66
2016-03-02T01:17:58.189Z,-7.66
2016-03-02T01:18:13.345Z,-7.65
2016-03-02T01:18:29.283Z,-7.66
2016-03-02T01:18:45.706Z,-7.63
2016-03-02T01:19:02.425Z,-7.67
2016-03-02T01:19:18.503Z,-7.63
2016-03-02T01:19:34.753Z,-7.69
2016-03-02T01:19:51.506Z,-7.66
2016-03-02T01:20:07.834Z,-7.65
2016-03-02T01:20:24.225Z,-7.75
2016-03-02T01:20:43.428Z,-7.69
2016-03-02T01:20:58.118Z,-7.67
2016-03-02T01:21:14.930Z,-7.67
2016-03-02T01:21:31.618Z,-7.69
2016-03-02T01:21:48.386Z,-7.66
2016-03-02T01:22:05.089Z,-7.7
2016-03-02T01:22:21.558Z,-7.69
2016-03-02T01:22:38.074Z,-7.67
2016-03-02T01:22:53.514Z,-7.69
2016-03-02T01:23:09.889Z,-7.69
2016-03-02T01:23:25.983Z,-7.65
2016-03-02T01:23:41.546Z,-7.72
2016-03-02T01:23:57.985Z,-7.72
2016-03-02T01:24:13.891Z,-7.72
2016-03-02T01:24:30.344Z,-7.72
2016-03-02T01:24:45.410Z,-7.69
2016-03-02T01:25:00.847Z,-7.72
2016-03-02T01:25:17.894Z,-7.63
2016-03-02T01:25:34.707Z,-7.69
2016-03-02T01:25:51.194Z,-7.67
2016-03-02T01:26:07.804Z,-7.62
2016-03-02T01:26:23.991Z,-7.58
2016-03-02T01:26:40.491Z,-7.59
2016-03-02T01:26:56.493Z,-7.63
2016-03-02T01:27:12.993Z,-7.52
2016-03-02T01:27:28.649Z,-7.58
2016-03-02T01:27:45.090Z,-7.55
2016-03-02T01:28:01.340Z,-7.59
2016-03-02T01:28:16.699Z,-7.56
2016-03-02T01:28:31.199Z,-7.59
2016-03-02T01:28:47.452Z,-7.51
2016-03-02T01:29:03.343Z,-7.47
2016-03-02T01:29:33.249Z,-7.51
2016-03-02T01:29:47.690Z,-7.49
2016-03-02T01:30:03.674Z,-7.49
2016-03-02T01:30:21.486Z,-7.47
2016-03-02T01:30:37.924Z,-7.48
2016-03-02T01:30:54.113Z,-7.48
2016-03-02T01:31:09.067Z,-7.55
2016-03-02T01:31:25.270Z,-7.45
2016-03-02T01:31:40.801Z,-7.48
2016-03-02T01:31:56.038Z,-7.56
2016-03-02T01:32:12.507Z,-7.45
2016-03-02T01:32:28.132Z,-7.52
2016-03-02T01:32:44.744Z,-7.45
2016-03-02T01:33:01.244Z,-7.51
2016-03-02T01:33:16.635Z,-7.51
2016-03-02T01:33:33.401Z,-7.59
2016-03-02T01:33:48.809Z,-7.52
2016-03-02T01:34:04.309Z,-7.48
2016-03-02T01:34:20.450Z,-7.55
2016-03-02T01:34:37.356Z,-7.65
2016-03-02T01:34:54.015Z,-7.59
2016-03-02T01:35:09.359Z,-7.59
2016-03-02T01:35:25.656Z,-7.52
2016-03-02T01:35:41.718Z,-7.54
2016-03-02T01:35:58.377Z,-7.65
2016-03-02T01:36:13.924Z,-7.65
2016-03-02T01:36:30.456Z,-7.66
2016-03-02T01:36:46.052Z,-7.66
2016-03-02T01:37:02.427Z,-7.65
2016-03-02T01:37:18.521Z,-7.62
2016-03-02T01:37:34.865Z,-7.62
2016-03-02T01:37:50.039Z,-7.65
2016-03-02T01:38:06.523Z,-7.62
2016-03-02T01:38:22.726Z,-7.65
2016-03-02T01:38:38.851Z,-7.65
2016-03-02T01:38:55.089Z,-7.69
2016-03-02T01:39:11.057Z,-7.67
2016-03-02T01:39:27.260Z,-7.73
2016-03-02T01:39:43.635Z,-7.69
2016-03-02T01:40:00.717Z,-7.7
2016-03-02T01:40:18.279Z,-7.67
2016-03-02T01:40:33.623Z,-7.65
2016-03-02T01:40:49.672Z,-7.77
2016-03-02T01:41:05.953Z,-7.76
2016-03-02T01:41:20.765Z,-7.66
2016-03-02T01:41:35.140Z,-7.75
2016-03-02T01:41:51.753Z,-7.7
2016-03-02T01:42:07.268Z,-7.69
2016-03-02T01:42:23.597Z,-7.73
2016-03-02T01:42:40.393Z,-7.7
2016-03-02T01:42:56.865Z,-7.69
2016-03-02T01:43:12.803Z,-7.69
2016-03-02T01:43:28.990Z,-7.75
2016-03-02T01:43:45.414Z,-7.65
2016-03-02T01:44:02.273Z,-7.67
2016-03-02T01:44:18.148Z,-7.73
2016-03-02T01:44:33.836Z,-7.65
2016-03-02T01:44:49.151Z,-7.65
2016-03-02T01:45:08.401Z,-7.63
2016-03-02T01:45:24.636Z,-7.65
2016-03-02T01:45:40.605Z,-7.66
2016-03-02T01:45:56.013Z,-7.63
2016-03-02T01:46:12.763Z,-7.65
2016-03-02T01:46:28.450Z,-7.73
2016-03-02T01:46:43.325Z,-7.69
2016-03-02T01:46:59.501Z,-7.65
2016-03-02T01:47:15.079Z,-7.73
2016-03-02T01:47:30.861Z,-7.67
2016-03-02T01:47:47.081Z,-7.65
2016-03-02T01:48:03.581Z,-7.72
2016-03-02T01:48:19.269Z,-7.72
2016-03-02T01:48:34.488Z,-7.73
2016-03-02T01:48:50.069Z,-7.7
2016-03-02T01:49:06.506Z,-7.69
2016-03-02T01:49:23.178Z,-7.73
2016-03-02T01:49:38.397Z,-7.69
2016-03-02T01:49:54.228Z,-7.7
2016-03-02T01:50:23.369Z,-7.72
2016-03-02T01:50:38.462Z,-7.72
2016-03-02T01:50:54.292Z,-7.66
2016-03-02T01:51:10.464Z,-7.56
2016-03-02T01:51:26.167Z,-7.54
2016-03-02T01:51:41.621Z,-7.62
2016-03-02T01:51:57.107Z,-7.56
2016-03-02T01:52:12.779Z,-7.56
2016-03-02T01:52:29.310Z,-7.55
2016-03-02T01:52:44.627Z,-7.55
2016-03-02T01:52:59.830Z,-7.62
2016-03-02T01:53:16.127Z,-7.59
2016-03-02T01:53:32.548Z,-7.55
2016-03-02T01:53:48.629Z,-7.54
2016-03-02T01:54:04.160Z,-7.54
2016-03-02T01:54:34.222Z,-7.47
2016-03-02T01:54:50.569Z,-7.4
2016-03-02T01:55:06.788Z,-7.52
2016-03-02T01:55:23.413Z,-7.49
2016-03-02T01:55:39.007Z,-7.47
2016-03-02T01:55:54.524Z,-7.48
2016-03-02T01:56:11.102Z,-7.45
2016-03-02T01:56:26.696Z,-7.49
2016-03-02T01:56:43.368Z,-7.51
2016-03-02T01:56:58.715Z,-7.47
2016-03-02T01:57:15.418Z,-7.49
2016-03-02T01:57:31.699Z,-7.4
2016-03-02T01:57:48.218Z,-7.36
2016-03-02T01:58:04.640Z,-7.4
2016-03-02T01:58:20.890Z,-7.4
2016-03-02T01:58:37.452Z,-7.44
2016-03-02T01:58:52.688Z,-7.4
2016-03-02T01:59:09.298Z,-7.38
2016-03-02T01:59:25.813Z,-7.37
2016-03-02T01:59:40.798Z,-7.42
2016-03-02T01:59:57.302Z,-7.37
2016-03-02T02:00:13.349Z,-7.38
2016-03-02T02:00:29.255Z,-7.36
2016-03-02T02:00:45.476Z,-7.37
2016-03-02T02:01:18.226Z,-7.45
2016-03-02T02:01:34.319Z,-7.38
2016-03-02T02:01:50.478Z,-7.45
2016-03-02T02:02:09.181Z,-7.48
2016-03-02T02:02:25.384Z,-7.49
2016-03-02T02:02:41.821Z,-7.48
2016-03-02T02:02:57.918Z,-7.54
2016-03-02T02:03:14.449Z,-7.52
2016-03-02T02:03:30.621Z,-7.51
2016-03-02T02:03:46.921Z,-7.54
2016-03-02T02:04:02.124Z,-7.51
2016-03-02T02:04:50.049Z,-7.58
2016-03-02T02:05:05.799Z,-7.58
2016-03-02T02:05:21.955Z,-7.63
2016-03-02T02:05:38.080Z,-7.63
2016-03-02T02:05:54.139Z,-7.56
2016-03-02T02:06:10.248Z,-7.52
2016-03-02T02:06:24.655Z,-7.51
2016-03-02T02:06:40.327Z,-7.49
2016-03-02T02:06:55.501Z,-7.48
2016-03-02T02:07:11.533Z,-7.55
2016-03-02T02:07:28.142Z,-7.45
2016-03-02T02:07:44.111Z,-7.49
2016-03-02T02:07:59.848Z,-7.49
2016-03-02T02:08:16.317Z,-7.45
2016-03-02T02:08:31.379Z,-7.48
2016-03-02T02:08:47.756Z,-7.45
2016-03-02T02:09:04.725Z,-7.47
2016-03-02T02:09:19.803Z,-7.45
2016-03-02T02:09:35.460Z,-7.45
2016-03-02T02:09:52.791Z,-7.48
2016-03-02T02:10:09.963Z,-7.54
2016-03-02T02:10:25.900Z,-7.52
2016-03-02T02:10:41.588Z,-7.44
2016-03-02T02:10:58.200Z,-7.49
2016-03-02T02:11:14.700Z,-7.49
2016-03-02T02:11:30.591Z,-7.44
2016-03-02T02:11:46.421Z,-7.42
2016-03-02T02:12:03.186Z,-7.52
2016-03-02T02:12:19.108Z,-7.44
2016-03-02T02:12:35.655Z,-7.47
2016-03-02T02:12:51.767Z,-7.47
2016-03-02T02:13:06.877Z,-7.48
2016-03-02T02:13:22.892Z,-7.48
2016-03-02T02:13:38.830Z,-7.45
2016-03-02T02:13:55.192Z,-7.47
2016-03-02T02:14:10.692Z,-7.33
2016-03-02T02:14:27.114Z,-7.4
2016-03-02T02:14:43.692Z,-7.47
2016-03-02T02:15:00.070Z,-7.44
2016-03-02T02:15:18.352Z,-7.45
2016-03-02T02:15:33.367Z,-7.44
2016-03-02T02:16:21.291Z,-7.44
2016-03-02T02:16:38.291Z,-7.45
2016-03-02T02:16:54.310Z,-7.4
2016-03-02T02:17:10.450Z,-7.42
2016-03-02T02:17:26.685Z,-7.45
2016-03-02T02:17:42.810Z,-7.42
2016-03-02T02:17:58.422Z,-7.37
2016-03-02T02:18:12.563Z,-7.47
2016-03-02T02:18:28.547Z,-7.36
2016-03-02T02:18:44.563Z,-7.34
2016-03-02T02:19:00.940Z,-7.37
2016-03-02T02:19:17.565Z,-7.4
2016-03-02T02:19:33.518Z,-7.37
2016-03-02T02:19:50.146Z,-7.44
2016-03-02T02:20:06.396Z,-7.33
2016-03-02T02:20:23.208Z,-7.34
2016-03-02T02:20:38.880Z,-7.31
2016-03-02T02:20:55.086Z,-7.48
2016-03-02T02:21:11.508Z,-7.34
2016-03-02T02:21:27.836Z,-7.47
2016-03-02T02:21:44.086Z,-7.31
2016-03-02T02:22:00.214Z,-7.33
2016-03-02T02:22:15.871Z,-7.38
2016-03-02T02:22:32.246Z,-7.33
2016-03-02T02:22:47.951Z,-7.37
2016-03-02T02:23:04.232Z,-7.34
2016-03-02T02:23:20.279Z,-7.28
2016-03-02T02:23:34.966Z,-7.36
2016-03-02T02:23:49.907Z,-7.33
2016-03-02T02:24:06.063Z,-7.36
2016-03-02T02:24:22.297Z,-7.3
2016-03-02T02:24:38.594Z,-7.31
2016-03-02T02:24:54.941Z,-7.34
2016-03-02T02:25:11.363Z,-7.31
2016-03-02T02:25:27.707Z,-7.3
2016-03-02T02:25:43.847Z,-7.31
2016-03-02T02:26:00.506Z,-7.4
2016-03-02T02:26:16.052Z,-7.31
2016-03-02T02:26:31.865Z,-7.31
2016-03-02T02:26:47.477Z,-7.31
2016-03-02T02:27:02.852Z,-7.3
2016-03-02T02:27:19.180Z,-7.34
2016-03-02T02:27:35.180Z,-7.3
2016-03-02T02:27:51.418Z,-7.33
2016-03-02T02:28:07.480Z,-7.33
2016-03-02T02:28:22.230Z,-7.36
2016-03-02T02:28:38.262Z,-7.3
2016-03-02T02:28:54.357Z,-7.36
2016-03-02T02:29:11.185Z,-7.3
2016-03-02T02:29:26.326Z,-7.22
2016-03-02T02:29:41.873Z,-7.24
2016-03-02T02:29:57.063Z,-7.3
2016-03-02T02:30:12.782Z,-7.16
2016-03-02T02:30:28.376Z,-7.24
2016-03-02T02:30:44.751Z,-7.22
2016-03-02T02:31:00.722Z,-7.19
2016-03-02T02:31:17.081Z,-7.2
2016-03-02T02:31:34.081Z,-7.2
2016-03-02T02:31:48.710Z,-7.2
2016-03-02T02:32:04.273Z,-7.22
2016-03-02T02:32:20.413Z,-7.17
2016-03-02T02:32:36.007Z,-7.19
2016-03-02T02:32:51.931Z,-7.26
2016-03-02T02:33:07.790Z,-7.19
2016-03-02T02:33:22.618Z,-7.24
2016-03-02T02:33:38.915Z,-7.26
2016-03-02T02:33:55.012Z,-7.2
2016-03-02T02:34:10.559Z,-7.15
2016-03-02T02:34:26.824Z,-7.12
2016-03-02T02:34:40.528Z,-7.15
2016-03-02T02:34:57.015Z,-7.1
2016-03-02T02:35:13.843Z,-7.1
2016-03-02T02:35:29.671Z,-7.09
2016-03-02T02:35:46.173Z,-7.06
2016-03-02T02:36:02.595Z,-7.12
2016-03-02T02:36:18.720Z,-7.13
2016-03-02T02:36:36.298Z,-7.09
2016-03-02T02:36:52.706Z,-7.12
2016-03-02T02:37:09.050Z,-7.06
2016-03-02T02:37:25.816Z,-7.09
2016-03-02T02:37:41.831Z,-7.05
2016-03-02T02:37:58.570Z,-7.06
2016-03-02T02:38:14.179Z,-7.09
2016-03-02T02:38:30.117Z,-7.05
2016-03-02T02:38:46.650Z,-7.09
2016-03-02T02:39:01.166Z,-7.06
2016-03-02T02:39:16.228Z,-7.02
2016-03-02T02:39:32.150Z,-7.06
2016-03-02T02:39:47.700Z,-7.12
2016-03-02T02:40:03.715Z,-7.09
2016-03-02T02:40:21.434Z,-7.15
2016-03-02T02:40:36.762Z,-7.07
2016-03-02T02:40:53.139Z,-7.12
2016-03-02T02:41:09.186Z,-7.1
2016-03-02T02:41:24.577Z,-7.12
2016-03-02T02:41:41.280Z,-6.98
2016-03-02T02:41:57.486Z,-6.99
2016-03-02T02:42:13.799Z,-7.07
2016-03-02T02:42:29.095Z,-7.01
2016-03-02T02:42:45.333Z,-7.01
2016-03-02T02:43:00.755Z,-7.05
2016-03-02T02:43:17.505Z,-7.07
2016-03-02T02:43:33.802Z,-7.06
2016-03-02T02:43:50.116Z,-7.01
2016-03-02T02:44:06.350Z,-7.02
2016-03-02T02:44:22.366Z,-7.02
2016-03-02T02:44:36.444Z,-7.1
2016-03-02T02:44:52.667Z,-7.05
2016-03-02T02:45:08.167Z,-7.15
2016-03-02T02:45:24.808Z,-7.15
2016-03-02T02:45:41.104Z,-7.07
2016-03-02T02:46:10.044Z,-6.99
2016-03-02T02:46:26.466Z,-7.15
2016-03-02T02:46:42.763Z,-7.09
2016-03-02T02:46:58.249Z,-7.02
2016-03-02T02:47:14.483Z,-7.01
2016-03-02T02:47:30.327Z,-6.99
2016-03-02T02:47:46.721Z,-7.05
2016-03-02T02:48:02.502Z,-7.13
2016-03-02T02:48:18.424Z,-7.05
2016-03-02T02:48:34.674Z,-6.97
2016-03-02T02:48:50.802Z,-6.99
2016-03-02T02:49:07.083Z,-7.06
2016-03-02T02:49:23.193Z,-7.07
2016-03-02T02:49:39.661Z,-7.05
2016-03-02T02:49:56.024Z,-7.07
2016-03-02T02:50:11.164Z,-7.01
2016-03-02T02:50:27.742Z,-6.98
2016-03-02T02:50:43.867Z,-6.97
2016-03-02T02:51:00.135Z,-7.02
2016-03-02T02:51:15.823Z,-6.95
2016-03-02T02:51:32.088Z,-7.01
2016-03-02T02:51:48.294Z,-6.94
2016-03-02T02:52:04.497Z,-7.02
2016-03-02T02:52:21.154Z,-6.95
2016-03-02T02:52:36.966Z,-6.99
2016-03-02T02:52:52.610Z,-6.94
2016-03-02T02:53:09.610Z,-6.97
2016-03-02T02:53:25.829Z,-6.97
2016-03-02T02:53:42.235Z,-6.98
2016-03-02T02:53:58.549Z,-6.97
2016-03-02T02:54:14.377Z,-6.99
2016-03-02T02:54:31.034Z,-7.01
2016-03-02T02:54:46.975Z,-7.06
2016-03-02T02:55:03.038Z,-7.05
2016-03-02T02:55:20.163Z,-6.98
2016-03-02T02:55:36.413Z,-6.97
2016-03-02T02:55:52.602Z,-7.02
2016-03-02T02:56:08.993Z,-7.01
2016-03-02T02:56:24.649Z,-7.05
2016-03-02T02:56:41.352Z,-6.98
2016-03-02T02:56:56.949Z,-7.01
2016-03-02T02:57:12.949Z,-7.05
2016-03-02T02:57:29.090Z,-6.95
2016-03-02T02:57:45.404Z,-7.01
2016-03-02T02:58:00.513Z,-7.02
2016-03-02T02:58:16.013Z,-6.99
2016-03-02T02:58:31.482Z,-7.02
2016-03-02T02:58:47.001Z,-7.06
2016-03-02T02:59:03.563Z,-6.97
2016-03-02T02:59:19.220Z,-7.07
2016-03-02T02:59:35.251Z,-7.01
2016-03-02T02:59:50.629Z,-7.05
2016-03-02T03:00:06.473Z,-7.01
2016-03-02T03:00:23.160Z,-7.09
2016-03-02T03:00:39.254Z,-7.09
2016-03-02T03:00:54.865Z,-7.02
2016-03-02T03:01:11.131Z,-7.15
2016-03-02T03:01:27.662Z,-7.09
2016-03-02T03:01:43.850Z,-7.09
2016-03-02T03:01:59.884Z,-7.02
2016-03-02T03:02:15.728Z,-7.06
2016-03-02T03:02:31.196Z,-7.12
2016-03-02T03:02:47.731Z,-7.07
2016-03-02T03:03:04.684Z,-7.1
2016-03-02T03:03:20.356Z,-7.05
2016-03-02T03:03:35.918Z,-7.02
2016-03-02T03:03:52.592Z,-7.06
2016-03-02T03:04:08.092Z,-7.01
2016-03-02T03:04:24.436Z,-7.05
2016-03-02T03:04:40.670Z,-7.06
2016-03-02T03:04:56.532Z,-7.1
2016-03-02T03:05:13.423Z,-7.02
2016-03-02T03:05:29.079Z,-7.07
2016-03-02T03:05:45.392Z,-7.06
2016-03-02T03:06:02.192Z,-7.02
2016-03-02T03:06:17.785Z,-7.09
2016-03-02T03:06:34.067Z,-7.02
2016-03-02T03:06:50.007Z,-7.12
2016-03-02T03:07:06.054Z,-7.06
2016-03-02T03:07:21.538Z,-7.06
2016-03-02T03:07:50.650Z,-7.09
2016-03-02T03:08:06.400Z,-7.05
2016-03-02T03:08:22.509Z,-7.12
2016-03-02T03:08:37.947Z,-7.06
2016-03-02T03:08:53.075Z,-7.1
2016-03-02T03:09:09.778Z,-7.07
2016-03-02T03:09:25.543Z,-7.06
2016-03-02T03:09:42.184Z,-7.09
2016-03-02T03:09:58.500Z,-7.09
2016-03-02T03:10:15.718Z,-7.09
2016-03-02T03:10:31.890Z,-7.09
2016-03-02T03:10:47.720Z,-7.06
2016-03-02T03:11:03.236Z,-7.1
2016-03-02T03:11:19.705Z,-7.07
2016-03-02T03:11:36.548Z,-7.09
2016-03-02T03:11:52.004Z,-7.09
2016-03-02T03:12:08.879Z,-7.07
2016-03-02T03:12:24.379Z,-7.09
2016-03-02T03:12:43.566Z,-7.17
2016-03-02T03:12:59.023Z,-7.13
2016-03-02T03:13:15.117Z,-7.12
2016-03-02T03:13:30.445Z,-7.15
2016-03-02T03:13:45.539Z,-7.15
2016-03-02T03:14:01.400Z,-7.2
2016-03-02T03:14:17.572Z,-7.16
2016-03-02T03:14:33.572Z,-7.1
2016-03-02T03:14:50.059Z,-7.17
2016-03-02T03:15:05.716Z,-7.24
2016-03-02T03:15:20.966Z,-7.17
2016-03-02T03:15:37.872Z,-7.19
2016-03-02T03:15:53.656Z,-7.16
2016-03-02T03:16:09.797Z,-7.19
2016-03-02T03:16:25.281Z,-7.17
2016-03-02T03:16:41.141Z,-7.16
2016-03-02T03:16:58.018Z,-7.27
2016-03-02T03:17:28.533Z,-7.2
2016-03-02T03:17:45.283Z,-7.15
2016-03-02T03:18:01.146Z,-7.26
2016-03-02T03:18:17.771Z,-7.2
2016-03-02T03:18:33.911Z,-7.16
2016-03-02T03:19:03.976Z,-7.2
2016-03-02T03:19:19.835Z,-7.22
2016-03-02T03:19:35.710Z,-7.26
2016-03-02T03:19:51.355Z,-7.17
2016-03-02T03:20:06.855Z,-7.22
2016-03-02T03:20:24.230Z,-7.22
2016-03-02T03:20:40.042Z,-7.26
2016-03-02T03:20:55.825Z,-7.26
2016-03-02T03:21:11.200Z,-7.24
2016-03-02T03:21:27.075Z,-7.13
2016-03-02T03:21:43.122Z,-7.26
2016-03-02T03:21:59.624Z,-7.22
2016-03-02T03:22:16.171Z,-7.24
2016-03-02T03:22:32.327Z,-7.24
2016-03-02T03:22:49.065Z,-7.15
2016-03-02T03:23:05.127Z,-7.16
2016-03-02T03:23:20.330Z,-7.28
2016-03-02T03:23:36.377Z,-7.13
2016-03-02T03:23:52.208Z,-7.24
2016-03-02T03:24:08.162Z,-7.2
2016-03-02T03:24:24.693Z,-7.27
2016-03-02T03:24:40.599Z,-7.22
2016-03-02T03:24:57.118Z,-7.19
2016-03-02T03:25:13.430Z,-7.22
2016-03-02T03:25:29.586Z,-7.28
2016-03-02T03:25:45.805Z,-7.27
2016-03-02T03:26:02.214Z,-7.19
2016-03-02T03:26:17.558Z,-7.17
2016-03-02T03:26:33.543Z,-7.16
2016-03-02T03:26:49.014Z,-7.28
2016-03-02T03:27:04.155Z,-7.2
2016-03-02T03:27:20.108Z,-7.2
2016-03-02T03:27:36.155Z,-7.22
2016-03-02T03:27:51.907Z,-7.24
2016-03-02T03:28:07.891Z,-7.24
2016-03-02T03:28:22.438Z,-7.22
2016-03-02T03:28:38.157Z,-7.3
2016-03-02T03:28:54.065Z,-7.2
2016-03-02T03:29:10.393Z,-7.2
2016-03-02T03:29:26.331Z,-7.19
2016-03-02T03:29:42.909Z,-7.24
2016-03-02T03:29:59.225Z,-7.22
2016-03-02T03:30:14.710Z,-7.24
2016-03-02T03:30:31.147Z,-7.22
2016-03-02T03:30:47.181Z,-7.28
2016-03-02T03:31:03.665Z,-7.26
2016-03-02T03:31:20.321Z,-7.2
2016-03-02T03:31:35.868Z,-7.24
2016-03-02T03:31:51.965Z,-7.19
2016-03-02T03:32:40.934Z,-7.27
2016-03-02T03:32:56.170Z,-7.24
2016-03-02T03:33:12.623Z,-7.24
2016-03-02T03:33:27.889Z,-7.27
2016-03-02T03:33:43.639Z,-7.22
2016-03-02T03:34:00.110Z,-7.16
2016-03-02T03:34:15.907Z,-7.26
2016-03-02T03:34:31.267Z,-7.17